MPTO/PTY METAR and TAF weather

Enter ICAO airport designator
Station Type Date Time Source
MPTO METAR 2020/11/25 22:00 UTC NOAA

MPTO 252200Z VRB02KT 9999 SCT018 SCT100 28/24 Q1008 NOSIG


Station Type Date Time Source
MPTO Decoded METAR 2020/11/25 22:00 UTC NOAA

Tocumen, Panama (MPTO) 09-03N 079-22W
Nov 25, 2020 - 05:00 PM EST / 2020.11.25 2200 UTC
Wind: Variable at 2 MPH (2 KT):0
Visibility: greater than 7 mile(s):0
Sky conditions: partly cloudy
Temperature: 82 F (28 C)
Dew Point: 75 F (24 C)
Relative Humidity: 78%
Pressure (altimeter): 29.77 in. Hg (1008 hPa)
ob: MPTO 252200Z VRB02KT 9999 SCT018 SCT100 28/24 Q1008 NOSIG
cycle: 22

Station Type Date Time Source
MPTO TAF 2020/11/25 18:22 UTC NOAA

TAF MPTO 251700Z 2518/2624 19006KT 8000 -RA SCT016CB SCT080
BECMG 2522/2524 03006KT NSW
TEMPO 2610/2612 27004KT

Example: see airport list